Archiv-/Tagesdaten

--Timestamp---	Temp	Chill	HIndex	Humid	Dewpt	 Wind 	HiWind	WindDir	Rain 	Barom	Solar	 ET  	 UV 
--------------	----	-----	------	-----	-----	------	------	-------	-----	-----	-----	-----	----
20100628 00:00	17.1	17.1	17.1	79	13.4	0	2	68	0.0	1017.0	0	0.025	0.0
20100628 00:05	17.0	17.0	17.0	79	13.3	0	0	-100000	0.0	1017.0	0	0.000	0.0
20100628 00:10	16.9	16.9	16.9	80	13.4	0	0	-100000	0.0	1017.0	0	0.000	0.0
20100628 00:15	16.8	16.8	16.8	80	13.3	0	0	-100000	0.0	1016.9	0	0.000	0.0
20100628 00:20	16.7	16.7	16.7	80	13.2	0	0	-100000	0.0	1017.0	0	0.000	0.0
20100628 00:25	16.6	16.6	16.6	80	13.1	0	0	-100000	0.0	1017.0	0	0.000	0.0
20100628 00:30	16.4	16.4	16.4	81	13.2	0	0	-100000	0.0	1016.9	0	0.000	0.0
20100628 00:35	16.3	16.3	16.3	82	13.2	0	0	-100000	0.0	1017.0	0	0.000	0.0
20100628 00:40	16.2	16.2	16.2	82	13.1	0	0	-100000	0.0	1017.0	0	0.000	0.0
20100628 00:45	16.1	16.1	16.1	82	13.0	0	0	-100000	0.0	1017.0	0	0.000	0.0
20100628 00:50	15.9	15.9	15.9	83	13.0	0	0	-100000	0.0	1017.1	0	0.000	0.0
20100628 00:55	15.8	15.8	15.8	82	12.7	0	0	-100000	0.0	1017.0	0	0.000	0.0
20100628 01:00	15.7	15.7	15.7	83	12.8	0	2	68	0.0	1016.9	0	0.025	0.0
20100628 01:05	15.7	15.7	15.7	83	12.8	0	3	68	0.0	1016.9	0	0.000	0.0
20100628 01:10	15.7	15.7	15.7	83	12.8	0	2	68	0.0	1017.0	0	0.000	0.0
20100628 01:15	15.8	15.8	15.8	83	12.9	0	0	-100000	0.0	1017.0	0	0.000	0.0
20100628 01:20	15.8	15.8	15.8	82	12.7	0	0	-100000	0.0	1017.0	0	0.000	0.0
20100628 01:25	15.8	15.8	15.8	82	12.7	0	0	-100000	0.0	1017.0	0	0.000	0.0
20100628 01:30	15.8	15.8	15.8	82	12.7	0	0	-100000	0.0	1017.0	0	0.000	0.0
20100628 01:35	15.8	15.8	15.8	82	12.7	0	2	68	0.0	1017.0	0	0.000	0.0
20100628 01:40	15.8	15.8	15.8	81	12.5	0	2	68	0.0	1017.0	0	0.000	0.0
20100628 01:45	15.8	15.8	15.8	81	12.5	0	2	68	0.0	1017.0	0	0.000	0.0
20100628 01:50	15.7	15.7	15.7	81	12.5	0	2	68	0.0	1017.0	0	0.000	0.0
20100628 01:55	15.7	15.7	15.7	82	12.7	0	2	68	0.0	1017.0	0	0.000	0.0
20100628 02:00	15.7	15.7	15.7	82	12.6	0	2	68	0.0	1017.0	0	0.025	0.0
20100628 02:05	15.6	15.6	15.6	82	12.5	0	2	68	0.0	1017.0	0	0.000	0.0
20100628 02:10	15.5	15.5	15.5	82	12.4	0	2	68	0.0	1017.0	0	0.000	0.0
20100628 02:15	15.4	15.4	15.4	83	12.5	0	2	68	0.0	1017.0	0	0.000	0.0
20100628 02:20	15.3	15.3	15.3	83	12.4	0	2	68	0.0	1017.0	0	0.000	0.0
20100628 02:25	15.2	15.2	15.2	83	12.3	0	2	68	0.0	1017.0	0	0.000	0.0
20100628 02:30	15.1	15.1	15.1	83	12.2	0	2	68	0.0	1017.1	0	0.000	0.0
20100628 02:35	15.0	15.0	15.0	84	12.3	0	0	-100000	0.0	1017.0	0	0.000	0.0
20100628 02:40	15.0	15.0	15.0	84	12.3	0	0	-100000	0.0	1017.0	0	0.000	0.0
20100628 02:45	14.9	14.9	14.9	84	12.2	0	0	-100000	0.0	1016.9	0	0.000	0.0
20100628 02:50	14.8	14.8	14.8	85	12.3	0	0	-100000	0.0	1017.0	0	0.000	0.0
20100628 02:55	14.7	14.7	14.7	85	12.2	0	2	68	0.0	1016.9	0	0.000	0.0
20100628 03:00	14.7	14.7	14.7	85	12.2	0	2	68	0.0	1017.0	0	0.025	0.0
20100628 03:05	14.6	14.6	14.6	85	12.1	0	2	68	0.0	1016.8	0	0.000	0.0
20100628 03:10	14.6	14.6	14.6	85	12.1	0	2	68	0.0	1016.8	0	0.000	0.0
20100628 03:15	14.5	14.5	14.5	86	12.2	0	2	68	0.0	1016.7	0	0.000	0.0
20100628 03:20	14.4	14.4	14.4	86	12.1	0	2	68	0.0	1016.7	0	0.000	0.0
20100628 03:25	14.3	14.3	14.3	86	12.0	0	0	-100000	0.0	1016.7	0	0.000	0.0
20100628 03:30	14.3	14.3	14.3	86	12.0	0	2	68	0.0	1016.6	0	0.000	0.0
20100628 03:35	14.3	14.3	14.3	86	12.0	0	0	-100000	0.0	1016.7	0	0.000	0.0
20100628 03:40	14.2	14.2	14.2	87	12.0	0	0	-100000	0.0	1016.7	0	0.000	0.0
20100628 03:45	14.2	14.2	14.2	87	12.0	0	0	-100000	0.0	1016.7	0	0.000	0.0
20100628 03:50	14.1	14.1	14.1	87	11.9	0	2	68	0.0	1016.8	0	0.000	0.0
20100628 03:55	14.1	14.1	14.1	87	11.9	0	0	-100000	0.0	1016.8	0	0.000	0.0
20100628 04:00	14.0	14.0	14.0	87	11.9	0	2	68	0.0	1016.9	0	0.000	0.0
20100628 04:05	14.0	14.0	14.0	87	11.9	2	5	68	0.0	1016.7	0	0.000	0.0
20100628 04:10	14.0	14.0	14.0	87	11.9	0	2	68	0.0	1016.7	0	0.000	0.0
20100628 04:15	13.9	13.9	13.9	87	11.8	2	5	68	0.0	1016.7	0	0.000	0.0
20100628 04:20	13.9	13.9	13.9	87	11.8	0	6	68	0.0	1016.7	0	0.000	0.0
20100628 04:25	13.8	13.8	13.8	87	11.7	3	5	112	0.0	1016.6	0	0.000	0.0
20100628 04:30	13.8	13.8	13.8	87	11.6	0	5	112	0.0	1016.7	0	0.000	0.0
20100628 04:35	13.8	13.8	13.8	87	11.6	0	3	112	0.0	1016.8	0	0.000	0.0
20100628 04:40	13.7	13.7	13.7	87	11.5	0	0	-100000	0.0	1016.8	0	0.000	0.0
20100628 04:45	13.5	13.5	13.5	87	11.4	0	0	-100000	0.0	1016.9	0	0.000	0.0
20100628 04:50	13.3	13.3	13.3	87	11.2	0	0	-100000	0.0	1016.9	0	0.000	0.0
20100628 04:55	13.2	13.2	13.2	87	11.1	0	0	-100000	0.0	1016.9	0	0.000	0.0
20100628 05:00	13.1	13.1	13.1	87	11.0	0	0	-100000	0.0	1016.9	0	0.000	0.0
20100628 05:05	13.1	13.1	13.1	87	10.9	0	0	-100000	0.0	1016.9	0	0.000	0.0
20100628 05:10	12.9	12.9	12.9	87	10.8	0	0	-100000	0.0	1017.1	0	0.000	0.0
20100628 05:15	12.9	12.9	12.9	88	11.0	0	0	-100000	0.0	1017.1	0	0.000	0.0
20100628 05:20	12.9	12.9	12.9	88	11.0	0	0	-100000	0.0	1017.1	1	0.000	0.0
20100628 05:25	13.0	13.0	13.0	89	11.2	0	0	-100000	0.0	1017.1	5	0.000	0.0
20100628 05:30	12.9	12.9	12.9	89	11.2	0	0	-100000	0.0	1017.2	8	0.000	0.0
20100628 05:35	12.9	12.9	12.9	88	10.9	0	2	180	0.0	1017.3	12	0.000	0.0
20100628 05:40	12.9	12.9	12.9	89	11.1	0	0	-100000	0.0	1017.2	14	0.000	0.0
20100628 05:45	12.9	12.9	12.9	89	11.1	0	0	-100000	0.0	1017.3	17	0.000	0.0
20100628 05:50	12.9	12.9	12.9	89	11.1	0	2	248	0.0	1017.2	19	0.000	0.0
20100628 05:55	12.9	12.9	12.9	89	11.2	0	2	248	0.0	1017.2	23	0.000	0.0
20100628 06:00	13.0	13.0	13.0	89	11.2	0	0	-100000	0.0	1017.2	26	0.000	0.0
20100628 06:05	13.1	13.1	13.1	88	11.1	2	5	248	0.0	1017.3	29	0.000	0.0
20100628 06:10	13.1	13.1	13.1	88	11.2	0	3	248	0.0	1017.3	33	0.000	0.0
20100628 06:15	13.2	13.2	13.2	88	11.3	0	2	248	0.0	1017.3	36	0.000	0.0
20100628 06:20	13.3	13.3	13.3	88	11.4	0	2	248	0.0	1017.4	39	0.000	0.0
20100628 06:25	13.4	13.4	13.4	87	11.3	2	5	248	0.0	1017.4	41	0.000	0.0
20100628 06:30	13.6	13.6	13.6	87	11.4	0	2	248	0.0	1017.4	42	0.000	0.0
20100628 06:35	13.7	13.7	13.7	87	11.5	0	2	248	0.0	1017.4	46	0.000	0.0
20100628 06:40	13.8	13.8	13.8	86	11.5	0	2	248	0.0	1017.4	49	0.000	0.0
20100628 06:45	14.0	14.0	14.0	86	11.7	0	0	-100000	0.0	1017.3	113	0.000	0.0
20100628 06:50	14.2	14.2	14.2	85	11.7	0	0	-100000	0.0	1017.4	140	0.000	0.0
20100628 06:55	14.6	14.6	14.6	84	11.9	0	0	-100000	0.0	1017.5	154	0.000	0.0
20100628 07:00	15.1	15.1	15.1	82	12.0	0	2	248	0.0	1017.3	166	0.051	0.0
20100628 07:05	15.6	15.6	15.6	81	12.4	0	2	248	0.0	1017.5	179	0.000	0.0
20100628 07:10	16.1	16.1	16.1	81	12.8	0	0	-100000	0.0	1017.4	191	0.000	0.3
20100628 07:15	16.4	16.4	16.4	80	13.0	0	0	-100000	0.0	1017.5	202	0.000	0.5
20100628 07:20	16.8	16.8	16.8	78	12.9	0	0	-100000	0.0	1017.5	213	0.000	0.6
20100628 07:25	17.1	17.1	17.1	77	13.0	0	2	248	0.0	1017.5	226	0.000	0.6
20100628 07:30	17.2	17.2	17.2	77	13.2	0	3	248	0.0	1017.5	239	0.000	0.7
20100628 07:35	17.5	17.5	17.5	77	13.4	0	0	-100000	0.0	1017.5	251	0.000	0.7
20100628 07:40	17.9	17.9	17.9	74	13.2	0	2	248	0.0	1017.5	266	0.000	0.8
20100628 07:45	18.4	18.4	18.4	74	13.7	2	3	248	0.0	1017.4	277	0.000	0.9
20100628 07:50	18.4	18.4	18.4	74	13.7	2	5	248	0.0	1017.3	292	0.000	0.9
20100628 07:55	18.3	18.3	18.3	73	13.4	2	5	248	0.0	1017.4	305	0.000	1.0
20100628 08:00	18.4	18.4	18.4	76	14.1	2	5	248	0.0	1017.3	317	0.127	1.1
20100628 08:05	18.5	18.5	18.5	75	14.0	3	6	248	0.0	1017.6	330	0.000	1.1
20100628 08:10	18.6	18.6	18.6	74	13.8	3	5	248	0.0	1017.6	344	0.000	1.2
20100628 08:15	18.5	18.5	18.5	72	13.4	5	8	68	0.0	1017.7	357	0.000	1.3
20100628 08:20	18.6	18.6	18.6	72	13.5	2	6	90	0.0	1017.7	371	0.000	1.4
20100628 08:25	18.8	18.8	18.8	72	13.7	2	6	90	0.0	1017.6	384	0.000	1.5
20100628 08:30	18.9	18.9	18.9	71	13.6	3	5	68	0.0	1017.7	397	0.000	1.6
20100628 08:35	19.1	19.1	19.1	71	13.7	3	6	68	0.0	1017.7	413	0.000	1.7
20100628 08:40	19.1	19.1	19.1	71	13.7	3	6	68	0.0	1017.7	428	0.000	1.8
20100628 08:45	19.2	19.2	19.2	72	14.0	3	6	68	0.0	1017.7	440	0.000	1.9
20100628 08:50	19.4	19.4	19.4	70	13.8	2	5	68	0.0	1017.7	449	0.000	2.0
20100628 08:55	19.6	19.6	19.6	69	13.7	3	6	68	0.0	1017.7	464	0.000	2.1
20100628 09:00	19.7	19.7	19.7	68	13.6	5	10	68	0.0	1017.8	477	0.229	2.2
20100628 09:05	19.7	19.7	19.7	68	13.6	3	6	68	0.0	1017.9	487	0.000	2.3
20100628 09:10	19.8	19.8	19.8	69	14.0	5	8	68	0.0	1017.9	503	0.000	2.5
20100628 09:15	19.9	19.9	19.9	69	14.1	3	8	45	0.0	1017.9	515	0.000	2.6
20100628 09:20	20.1	20.1	20.1	69	14.2	3	6	68	0.0	1018.0	524	0.000	2.7
20100628 09:25	20.3	20.3	20.3	66	13.7	3	8	90	0.0	1018.0	537	0.000	2.8
20100628 09:30	20.6	20.6	20.6	66	14.0	2	8	45	0.0	1018.0	551	0.000	3.0
20100628 09:35	20.7	20.7	20.7	64	13.6	2	6	45	0.0	1018.0	564	0.000	3.1
20100628 09:40	20.6	20.6	20.6	65	13.7	2	6	90	0.0	1017.9	576	0.000	3.3
20100628 09:45	20.6	20.6	20.6	66	14.0	3	8	90	0.0	1017.9	589	0.000	3.4
20100628 09:50	20.7	20.7	20.7	64	13.6	2	5	45	0.0	1018.0	600	0.000	3.6
20100628 09:55	20.8	20.8	20.8	66	14.2	2	6	45	0.0	1018.1	606	0.000	3.7
20100628 10:00	21.1	21.1	21.1	65	14.2	2	8	45	0.0	1018.0	614	0.330	3.8
20100628 10:05	21.2	21.2	21.2	63	13.9	5	8	45	0.0	1018.2	626	0.000	4.0
20100628 10:10	21.2	21.2	21.2	64	14.1	3	8	45	0.0	1018.2	633	0.000	4.1
20100628 10:15	21.3	21.3	21.3	64	14.2	3	8	45	0.0	1018.2	648	0.000	4.2
20100628 10:20	21.4	21.4	21.4	65	14.5	2	6	22	0.0	1018.2	661	0.000	4.4
20100628 10:25	21.6	21.6	21.6	64	14.4	2	5	22	0.0	1018.1	672	0.000	4.6
20100628 10:30	21.8	21.8	21.8	63	14.4	2	6	45	0.0	1018.0	682	0.000	4.7
20100628 10:35	21.9	21.9	21.9	64	14.8	2	5	270	0.0	1018.1	690	0.000	4.9
20100628 10:40	22.2	22.2	22.2	64	15.1	0	2	292	0.0	1018.1	700	0.000	5.0
20100628 10:45	22.7	22.7	22.7	64	15.5	2	5	292	0.0	1017.9	713	0.000	5.1
20100628 10:50	22.7	22.7	22.7	61	14.8	5	8	68	0.0	1017.9	720	0.000	5.2
20100628 10:55	22.7	22.7	22.7	61	14.8	2	6	68	0.0	1017.9	733	0.000	5.4
20100628 11:00	22.7	22.7	22.7	61	14.8	3	8	112	0.0	1017.8	740	0.432	5.5
20100628 11:05	22.7	22.7	22.7	61	14.8	0	6	112	0.0	1018.0	749	0.000	5.7
20100628 11:10	22.8	22.8	22.8	60	14.7	2	6	112	0.0	1018.0	757	0.000	5.8
20100628 11:15	22.8	22.8	22.8	60	14.7	3	8	90	0.0	1017.9	764	0.000	5.9
20100628 11:20	22.8	22.8	22.8	59	14.4	3	8	90	0.0	1017.9	773	0.000	6.1
20100628 11:25	22.8	22.8	22.8	59	14.3	2	6	68	0.0	1018.0	778	0.000	6.2
20100628 11:30	23.0	23.0	23.0	58	14.3	2	6	68	0.0	1017.8	787	0.000	6.4
20100628 11:35	23.2	23.2	23.2	58	14.4	2	3	45	0.0	1017.9	790	0.000	6.4
20100628 11:40	23.5	23.5	23.5	55	13.9	3	6	45	0.0	1017.9	799	0.000	6.6
20100628 11:45	23.7	23.7	23.7	58	14.9	2	6	68	0.0	1017.8	809	0.000	6.7
20100628 11:50	23.7	23.7	23.7	55	14.1	5	8	45	0.0	1017.8	819	0.000	6.9
20100628 11:55	23.7	23.7	23.7	55	14.1	2	6	68	0.0	1017.8	827	0.000	7.0
20100628 12:00	24.0	24.0	25.4	54	14.1	2	6	45	0.0	1017.8	830	0.483	7.1
20100628 12:05	24.0	24.0	25.4	53	13.8	3	6	68	0.0	1018.0	833	0.000	7.1
20100628 12:10	24.1	24.1	25.4	52	13.6	5	10	68	0.0	1018.0	839	0.000	7.2
20100628 12:15	24.3	24.3	25.5	55	14.7	2	6	135	0.0	1018.0	850	0.000	7.4
20100628 12:20	24.6	24.6	25.7	52	14.0	0	3	90	0.0	1018.0	852	0.000	7.4
20100628 12:25	24.8	24.8	25.8	50	13.6	3	6	90	0.0	1017.9	850	0.000	7.5
20100628 12:30	24.7	24.7	25.7	51	13.8	3	8	90	0.0	1018.0	864	0.000	7.6
20100628 12:35	24.4	24.4	25.6	50	13.3	5	8	45	0.0	1018.0	876	0.000	7.8
20100628 12:40	24.2	24.2	25.5	49	12.8	3	10	68	0.0	1018.0	875	0.000	7.7
20100628 12:45	24.4	24.4	25.6	52	13.9	0	5	68	0.0	1017.8	862	0.000	7.6
20100628 12:50	24.5	24.5	25.6	49	13.1	6	14	22	0.0	1017.7	876	0.000	7.8
20100628 12:55	24.3	24.3	25.5	50	13.2	6	10	68	0.0	1017.9	886	0.000	8.0
20100628 13:00	24.4	24.4	25.6	51	13.6	5	11	68	0.0	1017.8	890	0.559	8.1
20100628 13:05	24.7	24.7	25.7	49	13.2	3	10	45	0.0	1017.8	880	0.000	7.9
20100628 13:10	24.7	24.7	25.7	49	13.3	5	11	22	0.0	1017.7	871	0.000	7.8
20100628 13:15	24.9	24.9	25.8	48	13.1	3	8	22	0.0	1017.7	875	0.000	7.9
20100628 13:20	25.3	25.3	26.1	50	14.1	2	10	22	0.0	1017.6	868	0.000	7.8
20100628 13:25	25.8	25.8	26.5	53	15.5	5	11	338	0.0	1017.5	871	0.000	7.8
20100628 13:30	25.6	25.6	26.2	48	13.8	3	10	45	0.0	1017.5	877	0.000	7.8
20100628 13:35	25.6	25.6	26.2	48	13.7	3	8	68	0.0	1017.5	863	0.000	7.7
20100628 13:40	25.7	25.7	26.3	48	13.9	3	10	45	0.0	1017.4	840	0.000	7.5
20100628 13:45	25.5	25.5	26.1	46	13.0	5	11	22	0.0	1017.4	864	0.000	7.7
20100628 13:50	25.4	25.4	26.1	47	13.2	3	10	22	0.0	1017.5	871	0.000	7.7
20100628 13:55	25.3	25.3	26.0	47	13.2	5	11	22	0.0	1017.4	870	0.000	7.6
20100628 14:00	25.4	25.4	26.2	52	14.8	3	6	22	0.0	1017.4	854	0.584	7.4
20100628 14:05	25.7	25.7	26.3	48	13.8	3	8	338	0.0	1017.6	859	0.000	7.5
20100628 14:10	25.7	25.7	26.3	47	13.5	5	11	22	0.0	1017.5	863	0.000	7.4
20100628 14:15	25.6	25.6	26.2	49	14.0	2	10	22	0.0	1017.4	856	0.000	7.4
20100628 14:20	25.8	25.8	26.3	48	13.9	5	8	45	0.0	1017.4	848	0.000	7.3
20100628 14:25	25.8	25.8	26.3	47	13.6	5	14	22	0.0	1017.4	845	0.000	7.2
20100628 14:30	25.9	25.9	26.3	45	13.1	5	10	292	0.0	1017.3	827	0.000	6.9
20100628 14:35	25.9	25.9	26.3	43	12.4	6	14	292	0.0	1017.2	832	0.000	6.5
20100628 14:40	25.8	25.8	26.3	47	13.6	3	8	22	0.0	1017.3	820	0.000	6.8
20100628 14:45	25.8	25.8	26.3	46	13.3	3	10	22	0.0	1017.3	822	0.000	6.8
20100628 14:50	26.2	26.2	26.5	44	12.9	3	10	315	0.0	1017.4	815	0.000	6.7
20100628 14:55	25.9	25.9	26.3	45	13.1	5	10	22	0.0	1017.3	812	0.000	6.6
20100628 15:00	25.8	25.8	26.3	47	13.6	3	10	68	0.0	1017.3	805	0.559	6.6
20100628 15:05	25.6	25.6	26.1	45	12.8	8	16	22	0.0	1017.3	686	0.000	5.7
20100628 15:10	25.4	25.4	26.1	46	13.0	5	13	22	0.0	1017.4	784	0.000	6.0
20100628 15:15	25.9	25.9	26.5	48	14.1	2	5	22	0.0	1017.3	779	0.000	6.1
20100628 15:20	26.4	26.4	26.7	45	13.5	3	8	315	0.0	1017.2	776	0.000	6.0
20100628 15:25	26.8	26.8	27.1	47	14.6	3	10	0	0.0	1017.2	775	0.000	5.9
20100628 15:30	27.2	27.2	27.3	44	13.9	2	8	338	0.0	1017.0	768	0.000	5.8
20100628 15:35	27.3	27.3	27.3	44	14.0	5	11	22	0.0	1017.0	759	0.000	5.7
20100628 15:40	26.9	26.9	26.9	43	13.2	6	11	0	0.0	1017.0	749	0.000	5.6
20100628 15:45	26.3	26.3	26.6	45	13.4	6	10	45	0.0	1017.1	741	0.000	5.4
20100628 15:50	26.2	26.2	26.5	44	12.9	6	11	45	0.0	1017.2	726	0.000	5.2
20100628 15:55	25.9	25.9	26.3	44	12.7	5	10	22	0.0	1017.3	720	0.000	5.1
20100628 16:00	26.2	26.2	26.5	45	13.3	2	6	45	0.0	1017.1	712	0.508	4.9
20100628 16:05	26.3	26.3	26.5	44	13.0	5	11	22	0.0	1017.3	695	0.000	4.8
20100628 16:10	26.2	26.2	26.6	47	14.0	3	10	45	0.0	1017.3	684	0.000	4.6
20100628 16:15	26.6	26.6	26.9	47	14.3	3	8	315	0.0	1017.2	676	0.000	4.4
20100628 16:20	26.5	26.5	26.8	47	14.3	3	8	22	0.0	1017.2	672	0.000	4.3
20100628 16:25	26.3	26.3	26.6	44	13.1	6	10	22	0.0	1017.2	657	0.000	4.2
20100628 16:30	26.1	26.1	26.5	46	13.5	5	11	22	0.0	1017.3	643	0.000	4.0
20100628 16:35	26.3	26.3	26.6	45	13.4	3	11	22	0.0	1017.3	627	0.000	3.9
20100628 16:40	26.6	26.6	26.7	44	13.3	2	5	22	0.0	1017.1	621	0.000	3.7
20100628 16:45	26.9	26.9	27.0	44	13.6	2	6	22	0.0	1017.1	611	0.000	3.6
20100628 16:50	26.8	26.8	27.0	46	14.2	5	11	22	0.0	1017.1	597	0.000	3.4
20100628 16:55	27.0	27.0	27.2	47	14.7	2	6	22	0.0	1017.0	584	0.000	3.3
20100628 17:00	26.8	26.8	26.9	43	13.2	5	11	45	0.0	1017.0	573	0.432	3.1
20100628 17:05	26.6	26.6	26.7	44	13.3	5	11	45	0.0	1017.2	560	0.000	3.0
20100628 17:10	26.2	26.2	26.5	43	12.6	5	10	45	0.0	1017.2	551	0.000	2.9
20100628 17:15	26.1	26.1	26.4	45	13.2	5	11	45	0.0	1017.2	537	0.000	2.8
20100628 17:20	26.0	26.0	26.3	44	12.8	3	8	45	0.0	1017.2	521	0.000	2.6
20100628 17:25	25.9	25.9	26.4	46	13.4	6	10	45	0.0	1017.2	507	0.000	2.5
20100628 17:30	25.9	25.9	26.3	45	13.1	5	8	45	0.0	1017.1	491	0.000	2.3
20100628 17:35	26.0	26.0	26.3	44	12.8	5	8	68	0.0	1017.1	476	0.000	2.2
20100628 17:40	25.9	25.9	26.3	44	12.7	6	10	68	0.0	1017.1	462	0.000	2.1
20100628 17:45	25.9	25.9	26.4	46	13.4	5	10	22	0.0	1017.1	451	0.000	2.0
20100628 17:50	25.9	25.9	26.3	45	13.1	5	8	68	0.0	1017.1	434	0.000	1.9
20100628 17:55	26.1	26.1	26.6	49	14.5	2	6	45	0.0	1017.0	424	0.000	1.8
20100628 18:00	26.3	26.3	26.7	49	14.7	2	6	45	0.0	1017.0	415	0.356	1.7
20100628 18:05	26.3	26.3	26.7	47	14.1	3	6	22	0.0	1016.7	403	0.000	1.6
20100628 18:10	26.3	26.3	26.7	48	14.4	2	3	22	0.0	1016.7	392	0.000	1.5
20100628 18:15	26.4	26.4	26.6	44	13.1	2	3	22	0.0	1016.8	382	0.000	1.4
20100628 18:20	26.3	26.3	26.6	45	13.4	2	6	22	0.0	1016.7	370	0.000	1.3
20100628 18:25	26.2	26.2	26.4	42	12.3	3	10	22	0.0	1016.7	357	0.000	1.3
20100628 18:30	25.9	25.9	26.3	44	12.7	3	6	22	0.0	1016.8	347	0.000	1.2
20100628 18:35	26.1	26.1	26.4	44	12.8	0	3	22	0.0	1016.7	340	0.000	1.1
20100628 18:40	26.1	26.1	26.4	44	12.9	3	10	22	0.0	1016.7	329	0.000	1.0
20100628 18:45	25.9	25.9	26.2	42	12.0	5	8	45	0.0	1016.7	317	0.000	1.0
20100628 18:50	25.9	25.9	26.3	45	13.0	2	8	45	0.0	1016.8	306	0.000	0.9
20100628 18:55	25.7	25.7	26.2	46	13.2	6	11	22	0.0	1016.8	293	0.000	0.8
20100628 19:00	25.6	25.6	26.1	46	13.1	5	8	45	0.0	1016.8	281	0.254	0.8
20100628 19:05	25.5	25.5	26.1	46	13.0	5	10	68	0.0	1016.6	269	0.000	0.7
20100628 19:10	25.4	25.4	26.0	46	12.9	3	6	22	0.0	1016.6	256	0.000	0.6
20100628 19:15	25.3	25.3	26.0	48	13.5	3	8	45	0.0	1016.5	245	0.000	0.6
20100628 19:20	25.2	25.2	26.0	48	13.4	3	6	45	0.0	1016.4	231	0.000	0.5
20100628 19:25	25.1	25.1	25.9	49	13.6	3	10	45	0.0	1016.4	157	0.000	0.5
20100628 19:30	24.8	24.8	25.8	48	13.1	5	10	45	0.0	1016.5	63	0.000	0.0
20100628 19:35	24.7	24.7	25.7	51	13.9	3	8	45	0.0	1016.4	61	0.000	0.0
20100628 19:40	24.7	24.7	25.7	51	13.8	3	8	45	0.0	1016.5	59	0.000	0.0
20100628 19:45	24.6	24.6	25.7	52	14.0	2	6	45	0.0	1016.6	56	0.000	0.0
20100628 19:50	24.4	24.4	25.6	53	14.2	2	6	45	0.0	1016.6	54	0.000	0.0
20100628 19:55	24.3	24.3	25.5	53	14.1	2	5	45	0.0	1016.6	51	0.000	0.0
20100628 20:00	24.2	24.2	25.5	51	13.4	2	5	45	0.0	1016.7	48	0.102	0.0
20100628 20:05	24.2	24.2	25.5	53	14.0	2	5	45	0.0	1016.5	45	0.000	0.0
20100628 20:10	24.1	24.1	25.4	54	14.2	2	5	45	0.0	1016.5	43	0.000	0.0
20100628 20:15	23.9	23.9	25.3	55	14.3	2	3	45	0.0	1016.5	40	0.000	0.0
20100628 20:20	23.8	23.8	23.8	56	14.5	2	3	45	0.0	1016.4	36	0.000	0.0
20100628 20:25	23.7	23.7	23.7	57	14.6	2	5	45	0.0	1016.4	33	0.000	0.0
20100628 20:30	23.4	23.4	23.4	59	15.0	0	3	45	0.0	1016.5	30	0.000	0.0
20100628 20:35	23.2	23.2	23.2	60	15.0	0	3	45	0.0	1016.5	26	0.000	0.0
20100628 20:40	23.0	23.0	23.0	60	14.8	0	2	45	0.0	1016.5	22	0.000	0.0
20100628 20:45	22.8	22.8	22.8	62	15.2	0	2	45	0.0	1016.6	19	0.000	0.0
20100628 20:50	22.6	22.6	22.6	61	14.7	0	2	45	0.0	1016.6	17	0.000	0.0
20100628 20:55	22.4	22.4	22.4	61	14.5	0	2	45	0.0	1016.7	13	0.000	0.0
20100628 21:00	22.2	22.2	22.2	61	14.3	0	2	45	0.0	1016.8	11	0.025	0.0
20100628 21:05	22.1	22.1	22.1	62	14.4	0	2	45	0.0	1016.6	9	0.000	0.0
20100628 21:10	21.8	21.8	21.8	62	14.2	0	2	45	0.0	1016.7	6	0.000	0.0
20100628 21:15	21.8	21.8	21.8	62	14.2	0	2	45	0.0	1016.7	3	0.000	0.0
20100628 21:20	21.7	21.7	21.7	63	14.3	0	2	45	0.0	1016.7	0	0.000	0.0
20100628 21:25	21.5	21.5	21.5	62	13.9	0	3	45	0.0	1016.8	0	0.000	0.0
20100628 21:30	21.4	21.4	21.4	61	13.5	0	0	-100000	0.0	1016.8	0	0.000	0.0
20100628 21:35	21.3	21.3	21.3	62	13.7	0	2	45	0.0	1016.9	0	0.000	0.0
20100628 21:40	21.1	21.1	21.1	62	13.5	0	2	45	0.0	1016.9	0	0.000	0.0
20100628 21:45	20.9	20.9	20.9	63	13.6	0	0	-100000	0.0	1016.9	0	0.000	0.0
20100628 21:50	20.8	20.8	20.8	63	13.5	0	2	45	0.0	1017.0	0	0.000	0.0
20100628 21:55	20.7	20.7	20.7	63	13.4	0	2	45	0.0	1017.2	0	0.000	0.0
20100628 22:00	20.5	20.5	20.5	64	13.4	0	0	-100000	0.0	1017.2	0	0.000	0.0
20100628 22:05	20.4	20.4	20.4	66	13.8	0	0	-100000	0.0	1017.0	0	0.000	0.0
20100628 22:10	20.2	20.2	20.2	66	13.7	0	2	45	0.0	1017.1	0	0.000	0.0
20100628 22:15	20.0	20.0	20.0	67	13.7	0	2	45	0.0	1017.0	0	0.000	0.0
20100628 22:20	19.8	19.8	19.8	67	13.5	0	2	45	0.0	1017.0	0	0.000	0.0
20100628 22:25	19.7	19.7	19.7	67	13.4	0	3	45	0.0	1017.1	0	0.000	0.0
20100628 22:30	19.6	19.6	19.6	69	13.7	0	2	45	0.0	1017.1	0	0.000	0.0
20100628 22:35	19.4	19.4	19.4	69	13.6	0	3	45	0.0	1017.1	0	0.000	0.0
20100628 22:40	19.3	19.3	19.3	69	13.4	0	2	45	0.0	1017.1	0	0.000	0.0
20100628 22:45	19.1	19.1	19.1	70	13.5	0	2	45	0.0	1017.1	0	0.000	0.0
20100628 22:50	18.9	18.9	18.9	71	13.6	0	0	-100000	0.0	1017.2	0	0.000	0.0
20100628 22:55	18.8	18.8	18.8	71	13.4	0	2	45	0.0	1017.2	0	0.000	0.0
20100628 23:00	18.7	18.7	18.7	72	13.5	0	2	45	0.0	1017.1	0	0.025	0.0
20100628 23:05	18.6	18.6	18.6	71	13.2	0	2	45	0.0	1017.0	0	0.000	0.0
20100628 23:10	18.6	18.6	18.6	71	13.2	2	5	45	0.0	1017.0	0	0.000	0.0
20100628 23:15	18.5	18.5	18.5	72	13.4	2	5	45	0.0	1017.1	0	0.000	0.0
20100628 23:20	18.4	18.4	18.4	73	13.5	3	6	45	0.0	1017.1	0	0.000	0.0
20100628 23:25	18.3	18.3	18.3	74	13.6	0	3	45	0.0	1017.0	0	0.000	0.0
20100628 23:30	18.2	18.2	18.2	74	13.5	0	3	45	0.0	1017.1	0	0.000	0.0
20100628 23:35	18.1	18.1	18.1	75	13.6	2	5	45	0.0	1017.0	0	0.000	0.0
20100628 23:40	18.0	18.0	18.0	75	13.5	2	5	45	0.0	1017.1	0	0.000	0.0
20100628 23:45	17.9	17.9	17.9	75	13.4	0	0	-100000	0.0	1017.2	0	0.000	0.0
20100628 23:50	17.7	17.7	17.7	76	13.4	0	0	-100000	0.0	1017.2	0	0.000	0.0
20100628 23:55	17.6	17.6	17.6	76	13.3	0	2	45	0.0	1017.2	0	0.000	0.0



Please note the license to use and transfer of this data:
http://creativecommons.org/licenses/by-nc-sa/3.0/deed.en

Bitte beachten sie die Lizenz zur Verwertung und Weitergabe der Daten:
http://creativecommons.org/licenses/by-nc-sa/3.0/deed.de

zurück zur Übersicht der Archivdaten (Monats und Tagesdaten)

Cookies helfen bei der Bereitstellung von Inhalten. Durch die Nutzung dieser Seiten erklärst du dich damit einverstanden, dass Cookies auf deinem Rechner gespeichert werden. Weitere Information